sensor_id;sensor_type;location;lat;lon;timestamp;pressure;altitude;pressure_sealevel;temperature
67353;BMP180;54238;52.278;21.056;2022-08-21T00:02:26;100166.80;;;23.70
67353;BMP180;54238;52.278;21.056;2022-08-21T00:04:56;100164.60;;;23.70
67353;BMP180;54238;52.278;21.056;2022-08-21T00:07:26;100167.80;;;23.62
67353;BMP180;54238;52.278;21.056;2022-08-21T00:09:53;100164.60;;;23.60
67353;BMP180;54238;52.278;21.056;2022-08-21T00:12:21;100164.00;;;23.56
67353;BMP180;54238;52.278;21.056;2022-08-21T00:14:53;100157.00;;;23.50
67353;BMP180;54238;52.278;21.056;2022-08-21T00:17:22;100156.40;;;23.48
67353;BMP180;54238;52.278;21.056;2022-08-21T00:19:51;100155.80;;;23.40
67353;BMP180;54238;52.278;21.056;2022-08-21T00:22:18;100156.80;;;23.40
67353;BMP180;54238;52.278;21.056;2022-08-21T00:24:48;100161.60;;;23.40
67353;BMP180;54238;52.278;21.056;2022-08-21T00:27:22;100164.20;;;23.34
67353;BMP180;54238;52.278;21.056;2022-08-21T00:29:51;100160.40;;;23.30
67353;BMP180;54238;52.278;21.056;2022-08-21T00:32:25;100157.00;;;23.30
67353;BMP180;54238;52.278;21.056;2022-08-21T00:34:55;100150.60;;;23.26
67353;BMP180;54238;52.278;21.056;2022-08-21T00:37:22;100150.00;;;23.20
67353;BMP180;54238;52.278;21.056;2022-08-21T00:39:49;100147.40;;;23.20
67353;BMP180;54238;52.278;21.056;2022-08-21T00:42:17;100144.00;;;23.20
67353;BMP180;54238;52.278;21.056;2022-08-21T00:44:49;100144.60;;;23.12
67353;BMP180;54238;52.278;21.056;2022-08-21T00:47:18;100142.20;;;23.10
67353;BMP180;54238;52.278;21.056;2022-08-21T00:49:47;100143.80;;;23.06
67353;BMP180;54238;52.278;21.056;2022-08-21T00:52:25;100146.60;;;23.00
67353;BMP180;54238;52.278;21.056;2022-08-21T00:54:56;100145.00;;;23.00
67353;BMP180;54238;52.278;21.056;2022-08-21T00:57:39;100137.60;;;23.00
67353;BMP180;54238;52.278;21.056;2022-08-21T01:00:23;100136.00;;;23.00
67353;BMP180;54238;52.278;21.056;2022-08-21T01:02:57;100134.60;;;23.00
67353;BMP180;54238;52.278;21.056;2022-08-21T01:05:25;100138.00;;;22.90
67353;BMP180;54238;52.278;21.056;2022-08-21T01:07:57;100137.40;;;22.90
67353;BMP180;54238;52.278;21.056;2022-08-21T01:10:30;100135.20;;;22.90
67353;BMP180;54238;52.278;21.056;2022-08-21T01:13:04;100137.40;;;22.80
67353;BMP180;54238;52.278;21.056;2022-08-21T01:15:38;100132.20;;;22.72
67353;BMP180;54238;52.278;21.056;2022-08-21T01:18:11;100135.20;;;22.70
67353;BMP180;54238;52.278;21.056;2022-08-21T01:21:12;100132.20;;;22.70
67353;BMP180;54238;52.278;21.056;2022-08-21T01:23:48;100131.00;;;22.60
67353;BMP180;54238;52.278;21.056;2022-08-21T01:26:24;100126.60;;;22.60
67353;BMP180;54238;52.278;21.056;2022-08-21T01:28:58;100127.80;;;22.60
67353;BMP180;54238;52.278;21.056;2022-08-21T01:31:31;100123.20;;;22.50
67353;BMP180;54238;52.278;21.056;2022-08-21T01:34:03;100118.80;;;22.50
67353;BMP180;54238;52.278;21.056;2022-08-21T01:36:34;100115.80;;;22.40
67353;BMP180;54238;52.278;21.056;2022-08-21T01:39:11;100114.60;;;22.40
67353;BMP180;54238;52.278;21.056;2022-08-21T01:41:38;100111.20;;;22.40
67353;BMP180;54238;52.278;21.056;2022-08-21T01:44:13;100108.40;;;22.30
67353;BMP180;54238;52.278;21.056;2022-08-21T01:46:44;100103.80;;;22.30
67353;BMP180;54238;52.278;21.056;2022-08-21T01:49:14;100100.00;;;22.30
67353;BMP180;54238;52.278;21.056;2022-08-21T01:51:42;100101.00;;;22.26
67353;BMP180;54238;52.278;21.056;2022-08-21T01:54:17;100096.00;;;22.20
67353;BMP180;54238;52.278;21.056;2022-08-21T01:56:51;100098.60;;;22.20
67353;BMP180;54238;52.278;21.056;2022-08-21T01:59:20;100098.20;;;22.20
67353;BMP180;54238;52.278;21.056;2022-08-21T02:01:51;100096.60;;;22.20
67353;BMP180;54238;52.278;21.056;2022-08-21T02:04:21;100098.00;;;22.10
67353;BMP180;54238;52.278;21.056;2022-08-21T02:06:53;100093.00;;;22.02
67353;BMP180;54238;52.278;21.056;2022-08-21T02:09:22;100093.00;;;22.00
67353;BMP180;54238;52.278;21.056;2022-08-21T02:11:50;100088.00;;;21.90
67353;BMP180;54238;52.278;21.056;2022-08-21T02:14:18;100087.80;;;21.90
67353;BMP180;54238;52.278;21.056;2022-08-21T02:16:47;100086.60;;;21.86
67353;BMP180;54238;52.278;21.056;2022-08-21T02:19:16;100086.60;;;21.80
67353;BMP180;54238;52.278;21.056;2022-08-21T02:21:46;100094.80;;;21.80
67353;BMP180;54238;52.278;21.056;2022-08-21T02:24:15;100090.20;;;21.70
67353;BMP180;54238;52.278;21.056;2022-08-21T02:26:47;100090.20;;;21.60
67353;BMP180;54238;52.278;21.056;2022-08-21T02:29:16;100088.00;;;21.60
67353;BMP180;54238;52.278;21.056;2022-08-21T02:31:44;100083.20;;;21.60
67353;BMP180;54238;52.278;21.056;2022-08-21T02:34:11;100084.40;;;21.60
67353;BMP180;54238;52.278;21.056;2022-08-21T02:36:40;100082.00;;;21.52
67353;BMP180;54238;52.278;21.056;2022-08-21T02:39:07;100076.80;;;21.50
67353;BMP180;54238;52.278;21.056;2022-08-21T02:41:39;100076.00;;;21.50
67353;BMP180;54238;52.278;21.056;2022-08-21T02:44:11;100076.60;;;21.50
67353;BMP180;54238;52.278;21.056;2022-08-21T02:46:40;100070.80;;;21.40
67353;BMP180;54238;52.278;21.056;2022-08-21T02:49:09;100064.20;;;21.40
67353;BMP180;54238;52.278;21.056;2022-08-21T02:51:36;100062.60;;;21.32
67353;BMP180;54238;52.278;21.056;2022-08-21T02:54:06;100060.20;;;21.30
67353;BMP180;54238;52.278;21.056;2022-08-21T02:56:37;100062.40;;;21.30
67353;BMP180;54238;52.278;21.056;2022-08-21T02:59:06;100058.00;;;21.30
67353;BMP180;54238;52.278;21.056;2022-08-21T03:01:38;100059.80;;;21.30
67353;BMP180;54238;52.278;21.056;2022-08-21T03:04:05;100056.60;;;21.30
67353;BMP180;54238;52.278;21.056;2022-08-21T03:06:34;100056.00;;;21.30
67353;BMP180;54238;52.278;21.056;2022-08-21T03:09:06;100052.00;;;21.30
67353;BMP180;54238;52.278;21.056;2022-08-21T03:11:34;100048.60;;;21.30
67353;BMP180;54238;52.278;21.056;2022-08-21T03:14:02;100047.00;;;21.30
67353;BMP180;54238;52.278;21.056;2022-08-21T03:16:31;100050.60;;;21.20
67353;BMP180;54238;52.278;21.056;2022-08-21T03:19:00;100049.80;;;21.20
67353;BMP180;54238;52.278;21.056;2022-08-21T03:21:33;100052.00;;;21.28
67353;BMP180;54238;52.278;21.056;2022-08-21T03:24:02;100048.60;;;21.30
67353;BMP180;54238;52.278;21.056;2022-08-21T03:26:33;100048.40;;;21.30
67353;BMP180;54238;52.278;21.056;2022-08-21T03:29:02;100043.80;;;21.30
67353;BMP180;54238;52.278;21.056;2022-08-21T03:31:32;100045.60;;;21.30
67353;BMP180;54238;52.278;21.056;2022-08-21T03:33:59;100045.60;;;21.20
67353;BMP180;54238;52.278;21.056;2022-08-21T03:36:27;100048.20;;;21.20
67353;BMP180;54238;52.278;21.056;2022-08-21T03:38:56;100048.00;;;21.20
67353;BMP180;54238;52.278;21.056;2022-08-21T03:41:23;100046.20;;;21.20
67353;BMP180;54238;52.278;21.056;2022-08-21T03:43:50;100046.80;;;21.20
67353;BMP180;54238;52.278;21.056;2022-08-21T03:46:23;100045.40;;;21.20
67353;BMP180;54238;52.278;21.056;2022-08-21T03:48:56;100045.40;;;21.16
67353;BMP180;54238;52.278;21.056;2022-08-21T03:51:26;100048.00;;;21.12
67353;BMP180;54238;52.278;21.056;2022-08-21T03:53:54;100052.80;;;21.10
67353;BMP180;54238;52.278;21.056;2022-08-21T03:56:24;100050.60;;;21.10
67353;BMP180;54238;52.278;21.056;2022-08-21T03:58:54;100053.60;;;21.10
67353;BMP180;54238;52.278;21.056;2022-08-21T04:01:24;100052.80;;;21.10
67353;BMP180;54238;52.278;21.056;2022-08-21T04:03:53;100055.60;;;21.20
67353;BMP180;54238;52.278;21.056;2022-08-21T04:06:25;100054.00;;;21.20
67353;BMP180;54238;52.278;21.056;2022-08-21T04:08:55;100054.20;;;21.20
67353;BMP180;54238;52.278;21.056;2022-08-21T04:11:24;100057.60;;;21.20
67353;BMP180;54238;52.278;21.056;2022-08-21T04:13:51;100060.00;;;21.20
67353;BMP180;54238;52.278;21.056;2022-08-21T04:16:18;100055.60;;;21.26
67353;BMP180;54238;52.278;21.056;2022-08-21T04:18:52;100055.60;;;21.28
67353;BMP180;54238;52.278;21.056;2022-08-21T04:21:22;100055.40;;;21.30
67353;BMP180;54238;52.278;21.056;2022-08-21T04:23:55;100059.40;;;21.30
67353;BMP180;54238;52.278;21.056;2022-08-21T04:26:22;100062.80;;;21.30
67353;BMP180;54238;52.278;21.056;2022-08-21T04:28:55;100063.60;;;21.32
67353;BMP180;54238;52.278;21.056;2022-08-21T04:31:27;100065.40;;;21.40
67353;BMP180;54238;52.278;21.056;2022-08-21T04:33:58;100059.80;;;21.40
67353;BMP180;54238;52.278;21.056;2022-08-21T04:36:28;100054.20;;;21.42
67353;BMP180;54238;52.278;21.056;2022-08-21T04:38:55;100062.20;;;21.50
67353;BMP180;54238;52.278;21.056;2022-08-21T04:41:22;100060.20;;;21.50
67353;BMP180;54238;52.278;21.056;2022-08-21T04:43:49;100055.80;;;21.60
67353;BMP180;54238;52.278;21.056;2022-08-21T04:46:16;100051.40;;;21.60
67353;BMP180;54238;52.278;21.056;2022-08-21T04:48:45;100051.20;;;21.60
67353;BMP180;54238;52.278;21.056;2022-08-21T04:51:19;100048.80;;;21.60
67353;BMP180;54238;52.278;21.056;2022-08-21T04:54:07;100048.00;;;21.70
67353;BMP180;54238;52.278;21.056;2022-08-21T04:56:41;100041.80;;;21.70
67353;BMP180;54238;52.278;21.056;2022-08-21T04:59:23;100042.40;;;21.70
67353;BMP180;54238;52.278;21.056;2022-08-21T05:01:53;100042.40;;;21.80
67353;BMP180;54238;52.278;21.056;2022-08-21T05:04:30;100040.80;;;21.80
67353;BMP180;54238;52.278;21.056;2022-08-21T05:07:12;100043.20;;;21.80
67353;BMP180;54238;52.278;21.056;2022-08-21T05:09:39;100046.40;;;21.86
67353;BMP180;54238;52.278;21.056;2022-08-21T05:12:11;100053.80;;;21.90
67353;BMP180;54238;52.278;21.056;2022-08-21T05:14:41;100055.40;;;21.90
67353;BMP180;54238;52.278;21.056;2022-08-21T05:17:17;100055.60;;;22.00
67353;BMP180;54238;52.278;21.056;2022-08-21T05:19:47;100055.60;;;22.10
67353;BMP180;54238;52.278;21.056;2022-08-21T05:22:25;100054.40;;;22.10
67353;BMP180;54238;52.278;21.056;2022-08-21T05:24:52;100050.80;;;22.10
67353;BMP180;54238;52.278;21.056;2022-08-21T05:27:23;100050.20;;;22.10
67353;BMP180;54238;52.278;21.056;2022-08-21T05:29:54;100048.60;;;22.10
67353;BMP180;54238;52.278;21.056;2022-08-21T05:32:24;100051.00;;;22.10
67353;BMP180;54238;52.278;21.056;2022-08-21T05:34:51;100048.80;;;22.20
67353;BMP180;54238;52.278;21.056;2022-08-21T05:37:18;100048.60;;;22.30
67353;BMP180;54238;52.278;21.056;2022-08-21T05:39:50;100045.00;;;22.38
67353;BMP180;54238;52.278;21.056;2022-08-21T05:42:19;100049.60;;;22.50
67353;BMP180;54238;52.278;21.056;2022-08-21T05:44:46;100046.00;;;22.52
67353;BMP180;54238;52.278;21.056;2022-08-21T05:47:21;100047.60;;;22.60
67353;BMP180;54238;52.278;21.056;2022-08-21T05:49:50;100047.20;;;22.70
67353;BMP180;54238;52.278;21.056;2022-08-21T05:52:21;100042.80;;;22.90
67353;BMP180;54238;52.278;21.056;2022-08-21T05:54:48;100047.60;;;22.98
67353;BMP180;54238;52.278;21.056;2022-08-21T05:57:23;100050.20;;;23.04
67353;BMP180;54238;52.278;21.056;2022-08-21T05:59:54;100051.20;;;23.10
67353;BMP180;54238;52.278;21.056;2022-08-21T06:02:22;100057.00;;;23.20
67353;BMP180;54238;52.278;21.056;2022-08-21T06:04:56;100059.40;;;23.20
67353;BMP180;54238;52.278;21.056;2022-08-21T06:07:23;100061.20;;;23.30
67353;BMP180;54238;52.278;21.056;2022-08-21T06:09:52;100058.00;;;23.30
67353;BMP180;54238;52.278;21.056;2022-08-21T06:12:19;100064.40;;;23.40
67353;BMP180;54238;52.278;21.056;2022-08-21T06:14:48;100068.40;;;23.44
67353;BMP180;54238;52.278;21.056;2022-08-21T06:17:25;100071.20;;;23.50
67353;BMP180;54238;52.278;21.056;2022-08-21T06:19:55;100069.40;;;23.60
67353;BMP180;54238;52.278;21.056;2022-08-21T06:22:27;100071.00;;;23.70
67353;BMP180;54238;52.278;21.056;2022-08-21T06:24:58;100068.20;;;23.70
67353;BMP180;54238;52.278;21.056;2022-08-21T06:27:27;100074.00;;;23.80
67353;BMP180;54238;52.278;21.056;2022-08-21T06:30:04;100072.20;;;23.90
67353;BMP180;54238;52.278;21.056;2022-08-21T06:32:37;100067.00;;;24.00
67353;BMP180;54238;52.278;21.056;2022-08-21T06:35:12;100070.80;;;24.00
67353;BMP180;54238;52.278;21.056;2022-08-21T06:37:41;100070.60;;;24.10
67353;BMP180;54238;52.278;21.056;2022-08-21T06:40:15;100070.60;;;24.10
67353;BMP180;54238;52.278;21.056;2022-08-21T06:42:44;100070.00;;;24.16
67353;BMP180;54238;52.278;21.056;2022-08-21T06:45:11;100074.00;;;24.20
67353;BMP180;54238;52.278;21.056;2022-08-21T06:47:39;100071.20;;;24.30
67353;BMP180;54238;52.278;21.056;2022-08-21T06:50:11;100064.20;;;24.40
67353;BMP180;54238;52.278;21.056;2022-08-21T06:52:38;100067.00;;;24.56
67353;BMP180;54238;52.278;21.056;2022-08-21T06:55:08;100065.20;;;24.62
67353;BMP180;54238;52.278;21.056;2022-08-21T06:57:38;100062.40;;;24.78
67353;BMP180;54238;52.278;21.056;2022-08-21T07:00:12;100064.00;;;24.80
67353;BMP180;54238;52.278;21.056;2022-08-21T07:02:42;100068.80;;;24.90
67353;BMP180;54238;52.278;21.056;2022-08-21T07:05:13;100067.20;;;24.90
67353;BMP180;54238;52.278;21.056;2022-08-21T07:07:45;100067.60;;;25.00
67353;BMP180;54238;52.278;21.056;2022-08-21T07:10:15;100074.40;;;25.00
67353;BMP180;54238;52.278;21.056;2022-08-21T07:12:51;100080.80;;;25.10
67353;BMP180;54238;52.278;21.056;2022-08-21T07:15:25;100080.00;;;25.20
67353;BMP180;54238;52.278;21.056;2022-08-21T07:17:54;100080.60;;;25.30
67353;BMP180;54238;52.278;21.056;2022-08-21T07:20:21;100083.80;;;25.40
67353;BMP180;54238;52.278;21.056;2022-08-21T07:22:51;100083.00;;;25.40
67353;BMP180;54238;52.278;21.056;2022-08-21T07:25:20;100081.40;;;25.50
67353;BMP180;54238;52.278;21.056;2022-08-21T07:27:52;100083.60;;;25.50
67353;BMP180;54238;52.278;21.056;2022-08-21T07:30:25;100081.60;;;25.60
67353;BMP180;54238;52.278;21.056;2022-08-21T07:32:56;100077.60;;;25.68
67353;BMP180;54238;52.278;21.056;2022-08-21T07:35:24;100071.60;;;25.78
67353;BMP180;54238;52.278;21.056;2022-08-21T07:37:56;100069.20;;;25.82
67353;BMP180;54238;52.278;21.056;2022-08-21T07:40:27;100073.20;;;25.90
67353;BMP180;54238;52.278;21.056;2022-08-21T07:42:54;100066.60;;;26.00
67353;BMP180;54238;52.278;21.056;2022-08-21T07:45:23;100069.20;;;26.00
67353;BMP180;54238;52.278;21.056;2022-08-21T07:47:53;100069.00;;;26.04
67353;BMP180;54238;52.278;21.056;2022-08-21T07:50:24;100064.80;;;26.18
67353;BMP180;54238;52.278;21.056;2022-08-21T07:52:51;100060.00;;;26.30
67353;BMP180;54238;52.278;21.056;2022-08-21T07:55:22;100058.00;;;26.40
67353;BMP180;54238;52.278;21.056;2022-08-21T07:57:50;100054.40;;;26.50
67353;BMP180;54238;52.278;21.056;2022-08-21T08:00:24;100055.00;;;26.60
67353;BMP180;54238;52.278;21.056;2022-08-21T08:02:56;100052.60;;;26.70
67353;BMP180;54238;52.278;21.056;2022-08-21T08:05:34;100047.00;;;26.80
67353;BMP180;54238;52.278;21.056;2022-08-21T08:08:04;100046.40;;;26.90
67353;BMP180;54238;52.278;21.056;2022-08-21T08:10:37;100046.60;;;27.00
67353;BMP180;54238;52.278;21.056;2022-08-21T08:13:05;100047.40;;;27.14
67353;BMP180;54238;52.278;21.056;2022-08-21T08:15:32;100045.20;;;27.28
67353;BMP180;54238;52.278;21.056;2022-08-21T08:18:21;100041.80;;;27.30
67353;BMP180;54238;52.278;21.056;2022-08-21T08:20:50;100042.80;;;27.40
67353;BMP180;54238;52.278;21.056;2022-08-21T08:23:17;100038.80;;;27.50
67353;BMP180;54238;52.278;21.056;2022-08-21T08:25:49;100038.20;;;27.60
67353;BMP180;54238;52.278;21.056;2022-08-21T08:28:21;100041.80;;;27.70
67353;BMP180;54238;52.278;21.056;2022-08-21T08:31:30;100038.00;;;27.80
67353;BMP180;54238;52.278;21.056;2022-08-21T08:34:59;100035.80;;;27.90
67353;BMP180;54238;52.278;21.056;2022-08-21T08:37:26;100038.00;;;28.10
67353;BMP180;54238;52.278;21.056;2022-08-21T08:40:03;100040.00;;;28.20
67353;BMP180;54238;52.278;21.056;2022-08-21T08:42:51;100039.20;;;28.30
67353;BMP180;54238;52.278;21.056;2022-08-21T08:46:10;100036.80;;;28.40
67353;BMP180;54238;52.278;21.056;2022-08-21T08:52:46;100039.20;;;28.60
67353;BMP180;54238;52.278;21.056;2022-08-21T08:55:42;100032.60;;;28.80
67353;BMP180;54238;52.278;21.056;2022-08-21T08:58:42;100032.40;;;28.92
67353;BMP180;54238;52.278;21.056;2022-08-21T09:01:20;100031.60;;;29.10
67353;BMP180;54238;52.278;21.056;2022-08-21T09:03:51;100035.20;;;29.30
67353;BMP180;54238;52.278;21.056;2022-08-21T09:06:46;100032.40;;;29.46
67353;BMP180;54238;52.278;21.056;2022-08-21T09:09:25;100035.60;;;29.70
67353;BMP180;54238;52.278;21.056;2022-08-21T09:12:08;100033.80;;;29.80
67353;BMP180;54238;52.278;21.056;2022-08-21T09:17:55;100034.80;;;30.20
67353;BMP180;54238;52.278;21.056;2022-08-21T09:21:00;100035.80;;;30.42
67353;BMP180;54238;52.278;21.056;2022-08-21T09:26:53;100032.40;;;30.40
67353;BMP180;54238;52.278;21.056;2022-08-21T09:29:25;100036.80;;;30.20
67353;BMP180;54238;52.278;21.056;2022-08-21T09:31:58;100034.40;;;30.20
67353;BMP180;54238;52.278;21.056;2022-08-21T09:34:31;100034.80;;;30.20
67353;BMP180;54238;52.278;21.056;2022-08-21T09:37:03;100035.60;;;30.10
67353;BMP180;54238;52.278;21.056;2022-08-21T09:39:38;100031.00;;;30.00
67353;BMP180;54238;52.278;21.056;2022-08-21T09:42:09;100027.20;;;29.92
67353;BMP180;54238;52.278;21.056;2022-08-21T09:44:41;100027.20;;;30.20
67353;BMP180;54238;52.278;21.056;2022-08-21T09:47:18;100022.00;;;30.60
67353;BMP180;54238;52.278;21.056;2022-08-21T09:49:48;100022.20;;;31.04
67353;BMP180;54238;52.278;21.056;2022-08-21T09:52:26;100022.80;;;31.22
67353;BMP180;54238;52.278;21.056;2022-08-21T09:54:56;100019.60;;;31.56
67353;BMP180;54238;52.278;21.056;2022-08-21T09:57:28;100021.80;;;31.82
67353;BMP180;54238;52.278;21.056;2022-08-21T10:00:18;100017.80;;;32.24
67353;BMP180;54238;52.278;21.056;2022-08-21T10:02:45;100018.00;;;32.66
67353;BMP180;54238;52.278;21.056;2022-08-21T10:05:26;100014.00;;;32.92
67353;BMP180;54238;52.278;21.056;2022-08-21T10:07:55;100012.40;;;33.20
67353;BMP180;54238;52.278;21.056;2022-08-21T10:10:32;100009.60;;;33.56
67353;BMP180;54238;52.278;21.056;2022-08-21T10:25:18;100017.40;;;34.20
67353;BMP180;54238;52.278;21.056;2022-08-21T10:28:05;100019.00;;;33.56
67353;BMP180;54238;52.278;21.056;2022-08-21T10:31:00;100019.60;;;33.10
67353;BMP180;54238;52.278;21.056;2022-08-21T10:47:36;100024.40;;;32.10
67353;BMP180;54238;52.278;21.056;2022-08-21T10:55:55;100018.80;;;32.20
67353;BMP180;54238;52.278;21.056;2022-08-21T10:58:36;100014.60;;;32.10
67353;BMP180;54238;52.278;21.056;2022-08-21T11:01:27;100015.20;;;32.48
67353;BMP180;54238;52.278;21.056;2022-08-21T11:04:12;100009.40;;;33.06
67353;BMP180;54238;52.278;21.056;2022-08-21T11:06:58;100012.60;;;33.60
67353;BMP180;54238;52.278;21.056;2022-08-21T11:09:32;100006.00;;;34.06
67353;BMP180;54238;52.278;21.056;2022-08-21T11:15:37;100002.80;;;34.60
67353;BMP180;54238;52.278;21.056;2022-08-21T11:18:28;100004.00;;;34.50
67353;BMP180;54238;52.278;21.056;2022-08-21T11:29:47;99993.60;;;33.76
67353;BMP180;54238;52.278;21.056;2022-08-21T11:32:56;99999.60;;;33.50
67353;BMP180;54238;52.278;21.056;2022-08-21T11:35:32;99996.20;;;33.30
67353;BMP180;54238;52.278;21.056;2022-08-21T11:41:38;99999.20;;;33.50
67353;BMP180;54238;52.278;21.056;2022-08-21T11:47:03;100002.40;;;33.10
67353;BMP180;54238;52.278;21.056;2022-08-21T11:52:36;100003.00;;;32.58
67353;BMP180;54238;52.278;21.056;2022-08-21T11:55:16;100007.40;;;32.30
67353;BMP180;54238;52.278;21.056;2022-08-21T12:00:34;100009.60;;;31.90
67353;BMP180;54238;52.278;21.056;2022-08-21T12:03:25;100007.00;;;31.80
67353;BMP180;54238;52.278;21.056;2022-08-21T12:06:00;99999.40;;;32.02
67353;BMP180;54238;52.278;21.056;2022-08-21T12:08:40;99999.40;;;32.58
67353;BMP180;54238;52.278;21.056;2022-08-21T12:16:42;99986.80;;;34.98
67353;BMP180;54238;52.278;21.056;2022-08-21T12:19:30;99983.00;;;35.70
67353;BMP180;54238;52.278;21.056;2022-08-21T12:27:01;99985.80;;;37.12
67353;BMP180;54238;52.278;21.056;2022-08-21T12:29:48;99981.60;;;37.60
67353;BMP180;54238;52.278;21.056;2022-08-21T12:32:28;99985.00;;;38.04
67353;BMP180;54238;52.278;21.056;2022-08-21T12:35:14;99988.00;;;38.30
67353;BMP180;54238;52.278;21.056;2022-08-21T12:37:52;99982.40;;;38.66
67353;BMP180;54238;52.278;21.056;2022-08-21T12:40:30;99989.00;;;38.90
67353;BMP180;54238;52.278;21.056;2022-08-21T12:43:02;99998.40;;;38.60
67353;BMP180;54238;52.278;21.056;2022-08-21T12:45:41;99994.80;;;37.96
67353;BMP180;54238;52.278;21.056;2022-08-21T12:48:18;99998.20;;;37.26
67353;BMP180;54238;52.278;21.056;2022-08-21T12:51:09;99997.20;;;36.52
67353;BMP180;54238;52.278;21.056;2022-08-21T12:53:54;99998.40;;;35.90
67353;BMP180;54238;52.278;21.056;2022-08-21T12:56:31;99994.20;;;35.76
67353;BMP180;54238;52.278;21.056;2022-08-21T12:59:07;99996.40;;;36.10
67353;BMP180;54238;52.278;21.056;2022-08-21T13:01:51;99996.00;;;36.30
67353;BMP180;54238;52.278;21.056;2022-08-21T13:04:35;99992.80;;;36.42
67353;BMP180;54238;52.278;21.056;2022-08-21T13:07:19;99989.60;;;36.70
67353;BMP180;54238;52.278;21.056;2022-08-21T13:12:28;99999.20;;;36.84
67353;BMP180;54238;52.278;21.056;2022-08-21T13:15:04;99997.00;;;36.38
67353;BMP180;54238;52.278;21.056;2022-08-21T13:17:36;100000.00;;;35.96
67353;BMP180;54238;52.278;21.056;2022-08-21T13:20:26;100000.20;;;35.50
67353;BMP180;54238;52.278;21.056;2022-08-21T13:23:07;99993.20;;;34.86
67353;BMP180;54238;52.278;21.056;2022-08-21T13:25:42;99994.40;;;34.34
67353;BMP180;54238;52.278;21.056;2022-08-21T13:28:13;99998.40;;;34.00
67353;BMP180;54238;52.278;21.056;2022-08-21T13:30:45;99996.00;;;33.60
67353;BMP180;54238;52.278;21.056;2022-08-21T13:33:18;99996.80;;;33.22
67353;BMP180;54238;52.278;21.056;2022-08-21T13:38:32;99996.80;;;32.50
67353;BMP180;54238;52.278;21.056;2022-08-21T13:41:08;99994.40;;;32.34
67353;BMP180;54238;52.278;21.056;2022-08-21T13:43:49;99993.00;;;32.10
67353;BMP180;54238;52.278;21.056;2022-08-21T13:46:26;99998.00;;;32.00
67353;BMP180;54238;52.278;21.056;2022-08-21T13:49:00;99993.60;;;32.12
67353;BMP180;54238;52.278;21.056;2022-08-21T13:51:31;99997.40;;;32.20
67353;BMP180;54238;52.278;21.056;2022-08-21T13:54:12;99993.80;;;32.30
67353;BMP180;54238;52.278;21.056;2022-08-21T13:56:46;99992.40;;;32.66
67353;BMP180;54238;52.278;21.056;2022-08-21T13:59:36;99991.00;;;33.10
67353;BMP180;54238;52.278;21.056;2022-08-21T14:02:18;99989.40;;;33.70
67353;BMP180;54238;52.278;21.056;2022-08-21T14:05:01;99989.80;;;34.10
67353;BMP180;54238;52.278;21.056;2022-08-21T14:07:33;99995.60;;;34.20
67353;BMP180;54238;52.278;21.056;2022-08-21T14:10:14;99993.60;;;34.30
67353;BMP180;54238;52.278;21.056;2022-08-21T14:12:59;99993.40;;;34.60
67353;BMP180;54238;52.278;21.056;2022-08-21T14:15:36;99988.40;;;34.94
67353;BMP180;54238;52.278;21.056;2022-08-21T14:18:14;99991.60;;;35.34
67353;BMP180;54238;52.278;21.056;2022-08-21T14:20:45;99991.80;;;35.60
67353;BMP180;54238;52.278;21.056;2022-08-21T14:23:26;99990.20;;;35.80
67353;BMP180;54238;52.278;21.056;2022-08-21T14:26:00;99990.20;;;36.00
67353;BMP180;54238;52.278;21.056;2022-08-21T14:28:32;99994.20;;;36.08
67353;BMP180;54238;52.278;21.056;2022-08-21T14:31:20;99996.60;;;36.10
67353;BMP180;54238;52.278;21.056;2022-08-21T14:33:50;99994.80;;;36.10
67353;BMP180;54238;52.278;21.056;2022-08-21T14:36:17;99999.60;;;36.26
67353;BMP180;54238;52.278;21.056;2022-08-21T14:38:47;99997.00;;;36.36
67353;BMP180;54238;52.278;21.056;2022-08-21T14:41:24;99996.20;;;36.56
67353;BMP180;54238;52.278;21.056;2022-08-21T14:43:56;99996.40;;;36.70
67353;BMP180;54238;52.278;21.056;2022-08-21T14:46:29;99996.40;;;36.92
67353;BMP180;54238;52.278;21.056;2022-08-21T14:48:59;99988.40;;;37.10
67353;BMP180;54238;52.278;21.056;2022-08-21T14:51:31;99993.40;;;37.30
67353;BMP180;54238;52.278;21.056;2022-08-21T14:53:59;99994.00;;;37.40
67353;BMP180;54238;52.278;21.056;2022-08-21T14:56:26;99992.20;;;37.40
67353;BMP180;54238;52.278;21.056;2022-08-21T14:59:05;99988.00;;;37.46
67353;BMP180;54238;52.278;21.056;2022-08-21T15:01:44;99983.60;;;37.60
67353;BMP180;54238;52.278;21.056;2022-08-21T15:04:16;99982.40;;;37.60
67353;BMP180;54238;52.278;21.056;2022-08-21T15:06:45;99978.20;;;37.70
67353;BMP180;54238;52.278;21.056;2022-08-21T15:09:15;99974.60;;;37.60
67353;BMP180;54238;52.278;21.056;2022-08-21T15:11:44;99980.20;;;37.50
67353;BMP180;54238;52.278;21.056;2022-08-21T15:14:23;99980.40;;;37.38
67353;BMP180;54238;52.278;21.056;2022-08-21T15:16:51;99975.80;;;37.10
67353;BMP180;54238;52.278;21.056;2022-08-21T15:19:24;99983.80;;;36.90
67353;BMP180;54238;52.278;21.056;2022-08-21T15:21:51;99978.20;;;36.70
67353;BMP180;54238;52.278;21.056;2022-08-21T15:24:23;99983.80;;;36.60
67353;BMP180;54238;52.278;21.056;2022-08-21T15:26:59;99986.20;;;36.50
67353;BMP180;54238;52.278;21.056;2022-08-21T15:29:42;99989.00;;;36.20
67353;BMP180;54238;52.278;21.056;2022-08-21T15:32:23;99986.20;;;36.10
67353;BMP180;54238;52.278;21.056;2022-08-21T15:34:51;99984.60;;;36.00
67353;BMP180;54238;52.278;21.056;2022-08-21T15:37:20;99990.20;;;35.90
67353;BMP180;54238;52.278;21.056;2022-08-21T15:39:52;99988.60;;;35.90
67353;BMP180;54238;52.278;21.056;2022-08-21T15:42:21;99991.60;;;35.72
67353;BMP180;54238;52.278;21.056;2022-08-21T15:44:56;99987.20;;;35.48
67353;BMP180;54238;52.278;21.056;2022-08-21T15:47:30;99991.00;;;35.10